createdAt,value
2022-12-04T00:00:35.701Z,102368.19
2022-12-04T00:03:03.458Z,102379.84
2022-12-04T00:05:31.104Z,102374.84
2022-12-04T00:08:00.207Z,102378.13
2022-12-04T00:10:27.979Z,102383.28
2022-12-04T00:12:55.623Z,102371.50
2022-12-04T00:15:25.971Z,102384.25
2022-12-04T00:17:54.537Z,102373.25
2022-12-04T00:20:22.917Z,102371.50
2022-12-04T00:22:50.643Z,102384.44
2022-12-04T00:25:19.864Z,102387.72
2022-12-04T00:27:47.500Z,102380.66
2022-12-04T00:30:15.539Z,102379.25
2022-12-04T00:32:43.159Z,102375.88
2022-12-04T00:35:10.875Z,102369.06
2022-12-04T00:37:38.792Z,102369.06
2022-12-04T00:40:07.993Z,102370.81
2022-12-04T00:42:36.980Z,102372.97
2022-12-04T00:45:04.975Z,102377.00
2022-12-04T00:47:32.568Z,102374.13
2022-12-04T00:50:00.208Z,102371.56
2022-12-04T00:52:28.341Z,102361.25
2022-12-04T00:54:56.186Z,102369.06
2022-12-04T00:57:23.741Z,102368.00
2022-12-04T00:59:52.762Z,102375.59
2022-12-04T01:02:20.547Z,102373.16
2022-12-04T01:04:48.218Z,102378.91
2022-12-04T01:07:15.815Z,102372.13
2022-12-04T01:09:43.402Z,102383.28
2022-12-04T01:12:13.873Z,102376.63
2022-12-04T01:14:43.818Z,102373.81
2022-12-04T01:17:12.818Z,102377.56
2022-12-04T01:19:40.706Z,102375.78
2022-12-04T01:22:08.381Z,102370.06
2022-12-04T01:24:36.115Z,102370.72
2022-12-04T01:27:03.906Z,102375.91
2022-12-04T01:29:31.511Z,102377.75
2022-12-04T01:31:59.293Z,102373.34
2022-12-04T01:34:28.471Z,102374.09
2022-12-04T01:36:56.115Z,102374.56
2022-12-04T01:39:23.791Z,102372.69
2022-12-04T01:41:51.407Z,102368.22
2022-12-04T01:44:22.365Z,102370.72
2022-12-04T01:46:53.271Z,102373.47
2022-12-04T01:49:24.822Z,102372.50
2022-12-04T01:51:58.394Z,102377.50
2022-12-04T01:54:29.573Z,102365.41
2022-12-04T01:57:03.402Z,102373.34
2022-12-04T01:59:36.522Z,102375.44
2022-12-04T02:02:08.226Z,102374.28
2022-12-04T02:04:36.554Z,102377.88
2022-12-04T02:07:06.135Z,102376.63
2022-12-04T02:09:34.728Z,102374.09
2022-12-04T02:12:09.241Z,102384.16
2022-12-04T02:14:45.588Z,102376.75
2022-12-04T02:17:20.888Z,102383.84
2022-12-04T02:20:16.753Z,102387.50
2022-12-04T02:23:08.050Z,102386.47
2022-12-04T02:25:45.138Z,102380.28
2022-12-04T02:28:22.894Z,102378.50
2022-12-04T02:30:53.802Z,102381.16
2022-12-04T02:33:25.222Z,102372.97
2022-12-04T02:35:59.772Z,102363.22
2022-12-04T02:38:33.689Z,102371.56
2022-12-04T02:41:09.999Z,102367.31
2022-12-04T02:43:44.862Z,102369.03
2022-12-04T02:46:18.318Z,102361.53
2022-12-04T02:48:49.450Z,102358.53
2022-12-04T02:51:20.971Z,102359.84
2022-12-04T02:53:53.355Z,102365.81
2022-12-04T02:56:25.369Z,102353.63
2022-12-04T02:58:57.471Z,102354.38
2022-12-04T03:01:31.383Z,102355.50
2022-12-04T03:04:01.891Z,102364.06
2022-12-04T03:06:34.867Z,102362.09
2022-12-04T03:09:07.444Z,102354.00
2022-12-04T03:11:39.481Z,102354.81
2022-12-04T03:14:15.180Z,102359.81
2022-12-04T03:16:44.037Z,102359.81
2022-12-04T03:19:15.219Z,102351.00
2022-12-04T03:21:47.231Z,102354.25
2022-12-04T03:24:20.999Z,102356.97
2022-12-04T03:26:52.600Z,102351.59
2022-12-04T03:29:25.458Z,102346.34
2022-12-04T03:31:59.015Z,102353.50
2022-12-04T03:34:33.799Z,102357.91
2022-12-04T03:37:07.341Z,102364.94
2022-12-04T03:39:38.939Z,102367.50
2022-12-04T03:42:14.712Z,102368.22
2022-12-04T03:44:47.846Z,102376.88
2022-12-04T03:47:18.718Z,102373.09
2022-12-04T03:49:53.831Z,102368.59
2022-12-04T03:52:26.612Z,102369.34
2022-12-04T03:55:01.092Z,102376.09
2022-12-04T03:57:33.499Z,102369.03
2022-12-04T04:00:06.836Z,102374.00
2022-12-04T04:02:40.959Z,102373.69
2022-12-04T04:05:12.172Z,102370.88
2022-12-04T04:07:45.111Z,102369.22
2022-12-04T04:10:16.850Z,102372.56
2022-12-04T04:13:10.495Z,102371.44
2022-12-04T04:16:03.173Z,102374.69
2022-12-04T04:18:50.861Z,102371.31
2022-12-04T04:21:51.276Z,102373.97
2022-12-04T04:24:28.899Z,102366.06
2022-12-04T04:26:59.580Z,102367.75
2022-12-04T04:29:27.557Z,102371.31
2022-12-04T04:32:04.530Z,102366.38
2022-12-04T04:34:45.163Z,102362.72
2022-12-04T04:37:22.727Z,102362.50
2022-12-04T04:39:59.180Z,102359.69
2022-12-04T04:42:30.859Z,102363.88
2022-12-04T04:45:05.663Z,102360.41
2022-12-04T04:47:42.543Z,102357.78
2022-12-04T04:50:12.952Z,102349.69
2022-12-04T04:52:44.074Z,102352.25
2022-12-04T04:55:12.216Z,102359.94
2022-12-04T04:57:39.864Z,102368.63
2022-12-04T05:00:09.869Z,102359.72
2022-12-04T05:02:39.153Z,102368.22
2022-12-04T05:05:07.794Z,102363.81
2022-12-04T05:07:35.535Z,102367.31
2022-12-04T05:10:03.199Z,102363.63
2022-12-04T05:12:30.803Z,102362.78
2022-12-04T05:14:58.483Z,102365.31
2022-12-04T05:17:26.390Z,102358.28
2022-12-04T05:19:55.014Z,102355.53
2022-12-04T05:22:25.634Z,102356.47
2022-12-04T05:24:53.759Z,102359.84
2022-12-04T05:27:21.867Z,102355.44
2022-12-04T05:29:49.780Z,102357.97
2022-12-04T05:32:17.384Z,102369.41
2022-12-04T05:34:44.978Z,102362.47
2022-12-04T05:37:13.923Z,102364.34
2022-12-04T05:39:41.511Z,102374.69
2022-12-04T05:42:09.235Z,102374.78
2022-12-04T05:44:36.879Z,102372.03
2022-12-04T05:47:04.900Z,102368.41
2022-12-04T05:49:33.636Z,102365.75
2022-12-04T05:52:01.551Z,102369.84
2022-12-04T05:54:30.558Z,102368.72
2022-12-04T05:56:58.310Z,102364.09
2022-12-04T05:59:25.935Z,102368.09
2022-12-04T06:01:53.955Z,102366.00
2022-12-04T06:04:21.645Z,102373.69
2022-12-04T06:06:49.704Z,102373.47
2022-12-04T06:09:17.374Z,102376.75
2022-12-04T06:11:46.361Z,102375.50
2022-12-04T06:14:16.007Z,102373.38
2022-12-04T06:16:45.326Z,102373.94
2022-12-04T06:19:15.970Z,102377.31
2022-12-04T06:21:45.962Z,102380.06
2022-12-04T06:24:15.848Z,102372.75
2022-12-04T06:27:04.100Z,102379.44
2022-12-04T06:29:32.818Z,102376.59
2022-12-04T06:32:00.551Z,102378.03
2022-12-04T06:34:28.520Z,102381.53
2022-12-04T06:36:56.223Z,102387.53
2022-12-04T06:39:23.973Z,102376.78
2022-12-04T06:41:51.592Z,102379.97
2022-12-04T06:44:19.190Z,102388.59
2022-12-04T06:46:50.337Z,102385.63
2022-12-04T06:49:19.481Z,102381.97
2022-12-04T06:51:47.067Z,102383.84
2022-12-04T06:54:14.656Z,102386.16
2022-12-04T06:56:42.323Z,102377.41
2022-12-04T06:59:11.199Z,102379.09
2022-12-04T07:01:38.853Z,102382.25
2022-12-04T07:04:07.927Z,102376.88
2022-12-04T07:06:37.618Z,102380.97
2022-12-04T07:09:07.639Z,102381.72
2022-12-04T07:11:35.380Z,102385.91
2022-12-04T07:14:03.584Z,102388.47
2022-12-04T07:16:36.675Z,102393.38
2022-12-04T07:19:09.327Z,102385.47
2022-12-04T07:21:36.952Z,102399.72
2022-12-04T07:24:05.052Z,102387.31
2022-12-04T07:26:32.740Z,102388.03
2022-12-04T07:29:01.001Z,102399.50
2022-12-04T07:31:30.326Z,102406.25
2022-12-04T07:33:58.872Z,102395.59
2022-12-04T07:36:28.584Z,102400.88
2022-12-04T07:38:56.518Z,102398.44
2022-12-04T07:41:24.460Z,102392.03
2022-12-04T07:43:52.248Z,102401.63
2022-12-04T07:46:22.633Z,102400.78
2022-12-04T07:48:50.387Z,102400.66
2022-12-04T07:51:20.026Z,102394.22
2022-12-04T07:53:49.619Z,102393.28
2022-12-04T07:56:17.764Z,102398.44
2022-12-04T07:58:45.942Z,102397.38
2022-12-04T08:01:14.928Z,102396.44
2022-12-04T08:03:47.996Z,102395.28
2022-12-04T08:06:17.508Z,102392.50
2022-12-04T08:08:45.463Z,102396.84
2022-12-04T08:11:16.619Z,102393.13
2022-12-04T08:13:44.547Z,102393.34
2022-12-04T08:16:12.862Z,102395.78
2022-12-04T08:18:41.536Z,102393.84
2022-12-04T08:21:10.856Z,102402.84
2022-12-04T08:23:39.365Z,102404.53
2022-12-04T08:26:07.908Z,102395.69
2022-12-04T08:28:37.082Z,102395.56
2022-12-04T08:31:05.352Z,102403.25
2022-12-04T08:33:33.079Z,102398.69
2022-12-04T08:36:01.586Z,102399.44
2022-12-04T08:38:29.328Z,102398.47
2022-12-04T08:41:00.744Z,102403.03
2022-12-04T08:43:29.027Z,102398.81
2022-12-04T08:45:59.761Z,102406.59
2022-12-04T08:48:28.209Z,102403.75
2022-12-04T08:50:56.234Z,102398.38
2022-12-04T08:53:24.648Z,102392.13
2022-12-04T08:55:52.790Z,102399.94
2022-12-04T08:58:20.843Z,102396.38
2022-12-04T09:00:48.490Z,102388.25
2022-12-04T09:03:19.038Z,102394.22
2022-12-04T09:05:47.403Z,102400.22
2022-12-04T09:08:16.385Z,102406.34
2022-12-04T09:10:44.418Z,102401.81
2022-12-04T09:13:12.433Z,102408.69
2022-12-04T09:15:40.727Z,102405.91
2022-12-04T09:18:09.379Z,102412.97
2022-12-04T09:20:38.679Z,102406.75
2022-12-04T09:23:06.857Z,102415.41
2022-12-04T09:25:36.821Z,102414.44
2022-12-04T09:28:04.711Z,102407.38
2022-12-04T09:30:32.651Z,102409.19
2022-12-04T09:33:00.319Z,102409.19
2022-12-04T09:35:28.015Z,102412.53
2022-12-04T09:37:59.111Z,102405.81
2022-12-04T09:40:36.859Z,102410.97
2022-12-04T09:43:14.505Z,102413.28
2022-12-04T09:45:47.443Z,102411.38
2022-12-04T09:48:19.275Z,102412.81
2022-12-04T09:50:48.958Z,102408.28
2022-12-04T09:53:21.111Z,102408.28
2022-12-04T09:55:55.695Z,102412.28
2022-12-04T09:58:29.662Z,102403.28
2022-12-04T10:00:59.088Z,102397.91
2022-12-04T10:03:29.375Z,102401.59
2022-12-04T10:06:11.115Z,102407.63
2022-12-04T10:08:42.679Z,102403.69
2022-12-04T10:11:17.889Z,102408.00
2022-12-04T10:14:06.314Z,102400.69
2022-12-04T10:16:46.206Z,102411.63
2022-12-04T10:19:19.996Z,102409.50
2022-12-04T10:21:59.770Z,102402.72
2022-12-04T10:24:40.899Z,102395.03
2022-12-04T10:27:15.747Z,102391.72
2022-12-04T10:29:45.058Z,102393.28
2022-12-04T10:32:21.641Z,102389.09
2022-12-04T10:34:52.047Z,102385.97
2022-12-04T10:37:19.682Z,102374.09
2022-12-04T10:39:53.738Z,102369.91
2022-12-04T10:42:28.852Z,102379.75
2022-12-04T10:44:56.757Z,102376.16
2022-12-04T10:47:25.824Z,102377.84
2022-12-04T10:50:00.304Z,102388.53
2022-12-04T10:52:27.994Z,102375.09
2022-12-04T10:54:59.798Z,102373.03
2022-12-04T10:57:37.506Z,102370.88
2022-12-04T11:00:25.011Z,102357.41
2022-12-04T11:02:54.399Z,102355.75
2022-12-04T11:05:28.091Z,102362.72
2022-12-04T11:07:57.048Z,102353.59
2022-12-04T11:10:32.907Z,102356.22
2022-12-04T11:13:02.675Z,102353.72
2022-12-04T11:15:30.813Z,102359.34
2022-12-04T11:18:08.983Z,102354.41
2022-12-04T11:20:37.052Z,102344.31
2022-12-04T11:23:06.123Z,102347.19
2022-12-04T11:25:45.444Z,102332.91
2022-12-04T11:28:33.895Z,102345.66
2022-12-04T11:31:07.456Z,102349.94
2022-12-04T11:33:39.809Z,102351.41
2022-12-04T11:36:20.618Z,102351.88
2022-12-04T11:38:48.862Z,102345.63
2022-12-04T11:41:27.748Z,102350.06
2022-12-04T11:43:59.897Z,102344.81
2022-12-04T11:46:30.619Z,102333.97
2022-12-04T11:48:59.225Z,102333.00
2022-12-04T11:51:38.484Z,102334.09
2022-12-04T11:54:15.791Z,102334.56
2022-12-04T11:56:48.168Z,102332.03
2022-12-04T11:59:45.057Z,102334.47
2022-12-04T12:02:32.015Z,102327.38
2022-12-04T12:05:19.380Z,102324.88
2022-12-04T12:08:02.556Z,102327.28
2022-12-04T12:10:44.863Z,102324.50
2022-12-04T12:13:25.623Z,102320.66
2022-12-04T12:16:01.391Z,102323.06
2022-12-04T12:18:44.731Z,102315.50
2022-12-04T12:21:21.695Z,102311.56
2022-12-04T12:24:03.243Z,102310.09
2022-12-04T12:26:40.099Z,102319.13
2022-12-04T12:29:22.067Z,102310.44
2022-12-04T12:32:03.984Z,102309.75
2022-12-04T12:34:37.536Z,102308.41
2022-12-04T12:37:13.456Z,102300.97
2022-12-04T12:39:44.300Z,102298.94
2022-12-04T12:42:18.550Z,102306.97
2022-12-04T12:44:54.484Z,102308.03
2022-12-04T12:47:26.870Z,102309.84
2022-12-04T12:50:01.489Z,102305.53
2022-12-04T12:52:35.447Z,102301.44
2022-12-04T12:55:14.944Z,102296.16
2022-12-04T12:57:46.269Z,102294.72
2022-12-04T13:00:20.018Z,102297.25
2022-12-04T13:02:53.777Z,102296.41
2022-12-04T13:05:26.642Z,102297.63
2022-12-04T13:08:02.148Z,102299.28
2022-12-04T13:10:33.865Z,102302.75
2022-12-04T13:13:05.231Z,102296.63
2022-12-04T13:15:40.422Z,102282.72
2022-12-04T13:18:11.875Z,102294.38
2022-12-04T13:20:47.217Z,102300.50
2022-12-04T13:23:30.124Z,102295.94
2022-12-04T13:26:06.085Z,102303.47
2022-12-04T13:28:49.082Z,102306.25
2022-12-04T13:31:28.302Z,102297.47
2022-12-04T13:34:25.274Z,102283.31
2022-12-04T13:37:06.411Z,102265.06
2022-12-04T13:40:30.651Z,102281.50
2022-12-04T13:43:15.643Z,102286.78
2022-12-04T13:45:46.685Z,102279.84
2022-12-04T13:48:26.770Z,102287.88
2022-12-04T13:51:03.997Z,102283.19
2022-12-04T13:53:33.548Z,102284.03
2022-12-04T13:56:06.188Z,102279.00
2022-12-04T13:58:37.540Z,102285.00
2022-12-04T14:01:13.103Z,102291.25
2022-12-04T14:03:49.427Z,102283.44
2022-12-04T14:06:25.055Z,102281.78
2022-12-04T14:08:57.728Z,102288.59
2022-12-04T14:11:26.191Z,102272.88
2022-12-04T14:13:56.517Z,102282.59
2022-12-04T14:16:26.692Z,102279.13
2022-12-04T14:18:58.603Z,102278.16
2022-12-04T14:21:27.474Z,102270.34
2022-12-04T14:23:55.194Z,102265.66
2022-12-04T14:26:48.813Z,102282.34
2022-12-04T14:29:35.259Z,102269.28
2022-12-04T14:32:10.578Z,102273.00
2022-12-04T14:34:39.715Z,102284.50
2022-12-04T14:37:08.010Z,102272.25
2022-12-04T14:39:40.903Z,102273.09
2022-12-04T14:42:15.263Z,102273.09
2022-12-04T14:44:45.982Z,102282.97
2022-12-04T14:47:24.376Z,102289.19
2022-12-04T14:50:05.747Z,102274.91
2022-12-04T14:52:42.568Z,102280.41
2022-12-04T14:55:21.621Z,102279.47
2022-12-04T14:57:55.155Z,102281.88
2022-12-04T15:00:24.795Z,102290.75
2022-12-04T15:02:55.910Z,102291.59
2022-12-04T15:05:27.373Z,102284.66
2022-12-04T15:08:00.191Z,102289.94
2022-12-04T15:10:47.595Z,102294.22
2022-12-04T15:13:26.566Z,102300.25
2022-12-04T15:15:54.671Z,102302.91
2022-12-04T15:18:22.343Z,102302.06
2022-12-04T15:20:58.154Z,102294.13
2022-12-04T15:23:30.290Z,102295.78
2022-12-04T15:26:00.612Z,102300.00
2022-12-04T15:28:32.265Z,102303.47
2022-12-04T15:31:03.637Z,102303.72
2022-12-04T15:33:35.875Z,102306.97
2022-12-04T15:36:09.778Z,102305.03
2022-12-04T15:38:37.830Z,102303.25
2022-12-04T15:41:05.508Z,102302.41
2022-12-04T15:43:40.399Z,102297.00
2022-12-04T15:46:14.162Z,102308.53
2022-12-04T15:48:47.568Z,102295.31
2022-12-04T15:51:21.326Z,102297.00
2022-12-04T15:53:49.243Z,102294.22
2022-12-04T15:56:19.639Z,102295.22
2022-12-04T15:58:55.998Z,102294.38
2022-12-04T16:01:23.801Z,102293.66
2022-12-04T16:03:53.182Z,102297.09
2022-12-04T16:06:25.015Z,102293.41
2022-12-04T16:08:54.478Z,102292.81
2022-12-04T16:11:30.713Z,102298.69
2022-12-04T16:14:14.968Z,102303.13
2022-12-04T16:16:45.019Z,102297.00
2022-12-04T16:19:17.845Z,102294.22
2022-12-04T16:21:47.417Z,102295.81
2022-12-04T16:24:15.290Z,102290.78
2022-12-04T16:26:43.069Z,102296.63
2022-12-04T16:29:10.682Z,102290.41
2022-12-04T16:31:39.096Z,102283.19
2022-12-04T16:34:06.823Z,102288.72
2022-12-04T16:36:34.495Z,102278.03
2022-12-04T16:39:03.527Z,102287.53
2022-12-04T16:41:31.225Z,102284.03
2022-12-04T16:44:00.575Z,102282.13
2022-12-04T16:46:30.238Z,102291.97
2022-12-04T16:49:01.515Z,102269.88
2022-12-04T16:51:32.116Z,102270.22
2022-12-04T16:53:59.732Z,102279.59
2022-12-04T16:56:28.691Z,102268.56
2022-12-04T16:58:56.327Z,102267.56
2022-12-04T17:01:26.476Z,102276.09
2022-12-04T17:03:54.266Z,102268.19
2022-12-04T17:06:22.095Z,102277.66
2022-12-04T17:08:49.735Z,102277.78
2022-12-04T17:11:18.478Z,102266.38
2022-12-04T17:13:47.556Z,102281.53
2022-12-04T17:16:17.609Z,102267.94
2022-12-04T17:18:47.356Z,102266.16
2022-12-04T17:21:15.606Z,102258.59
2022-12-04T17:23:43.795Z,102254.88
2022-12-04T17:26:13.621Z,102261.81
2022-12-04T17:28:41.632Z,102247.88
2022-12-04T17:31:18.052Z,102268.78
2022-12-04T17:33:46.227Z,102269.63
2022-12-04T17:36:17.038Z,102264.22
2022-12-04T17:38:45.278Z,102260.16
2022-12-04T17:41:15.086Z,102268.91
2022-12-04T17:43:44.052Z,102273.34
2022-12-04T17:46:14.074Z,102260.00
2022-12-04T17:48:43.323Z,102259.16
2022-12-04T17:51:12.823Z,102262.78
2022-12-04T17:53:41.016Z,102271.44
2022-12-04T17:56:10.794Z,102266.28
2022-12-04T17:58:38.662Z,102276.09
2022-12-04T18:01:08.528Z,102276.00
2022-12-04T18:03:37.531Z,102274.91
2022-12-04T18:06:14.131Z,102276.72
2022-12-04T18:08:45.303Z,102266.84
2022-12-04T18:11:18.735Z,102279.34
2022-12-04T18:13:46.378Z,102285.34
2022-12-04T18:16:14.078Z,102277.31
2022-12-04T18:18:41.804Z,102291.63
2022-12-04T18:21:12.189Z,102292.69
2022-12-04T18:23:45.108Z,102292.69
2022-12-04T18:26:14.486Z,102284.63
2022-12-04T18:28:42.328Z,102291.84
2022-12-04T18:31:10.895Z,102298.22
2022-12-04T18:33:40.666Z,102289.31
2022-12-04T18:36:09.420Z,102289.56
2022-12-04T18:38:37.367Z,102295.69
2022-12-04T18:41:08.444Z,102303.50
2022-12-04T18:43:36.520Z,102291.25
2022-12-04T18:46:07.815Z,102295.44
2022-12-04T18:48:35.916Z,102294.50
2022-12-04T18:51:03.725Z,102292.81
2022-12-04T18:53:31.300Z,102310.44
2022-12-04T18:56:03.310Z,102293.66
2022-12-04T18:58:32.250Z,102299.78
2022-12-04T19:01:06.222Z,102294.34
2022-12-04T19:03:34.411Z,102295.22
2022-12-04T19:06:02.665Z,102302.03
2022-12-04T19:08:33.712Z,102303.03
2022-12-04T19:11:07.708Z,102302.41
2022-12-04T19:13:36.939Z,102325.13
2022-12-04T19:16:05.306Z,102315.25
2022-12-04T19:18:32.970Z,102309.13
2022-12-04T19:21:00.564Z,102325.81
2022-12-04T19:23:28.167Z,102313.84
2022-12-04T19:25:58.073Z,102314.66
2022-12-04T19:28:27.576Z,102310.09
2022-12-04T19:30:56.683Z,102318.03
2022-12-04T19:33:25.938Z,102327.63
2022-12-04T19:36:02.215Z,102317.78
2022-12-04T19:38:31.369Z,102308.88
2022-12-04T19:41:08.131Z,102307.47
2022-12-04T19:43:35.828Z,102313.84
2022-12-04T19:46:05.489Z,102313.84
2022-12-04T19:48:33.710Z,102307.72
2022-12-04T19:51:07.332Z,102306.72
2022-12-04T19:53:40.616Z,102312.84
2022-12-04T19:56:11.588Z,102307.72
2022-12-04T19:58:39.275Z,102311.28
2022-12-04T20:01:12.364Z,102315.72
2022-12-04T20:03:40.170Z,102319.47
2022-12-04T20:06:11.448Z,102313.47
2022-12-04T20:08:39.948Z,102324.97
2022-12-04T20:11:11.602Z,102318.00
2022-12-04T20:13:39.928Z,102305.88
2022-12-04T20:16:11.719Z,102314.41
2022-12-04T20:18:41.200Z,102323.06
2022-12-04T20:21:11.809Z,102317.91
2022-12-04T20:23:39.790Z,102312.63
2022-12-04T20:26:08.928Z,102316.09
2022-12-04T20:28:36.683Z,102324.03
2022-12-04T20:31:14.348Z,102307.19
2022-12-04T20:33:42.555Z,102317.66
2022-12-04T20:36:11.363Z,102318.75
2022-12-04T20:38:40.135Z,102313.69
2022-12-04T20:41:10.053Z,102314.56
2022-12-04T20:43:38.138Z,102325.22
2022-12-04T20:46:16.739Z,102320.66
2022-12-04T20:48:48.214Z,102319.94
2022-12-04T20:51:17.224Z,102316.44
2022-12-04T20:53:45.271Z,102313.69
2022-12-04T20:56:13.288Z,102320.16
2022-12-04T20:58:41.327Z,102318.25
2022-12-04T21:01:10.026Z,102320.41
2022-12-04T21:03:39.397Z,102314.88
2022-12-04T21:06:14.493Z,102317.66
2022-12-04T21:08:54.286Z,102314.88
2022-12-04T21:11:22.796Z,102325.47
2022-12-04T21:14:07.896Z,102293.16
2022-12-04T21:16:35.948Z,102294.13
2022-12-04T21:19:06.055Z,102293.16
2022-12-04T21:21:34.918Z,102295.31
2022-12-04T21:24:02.760Z,102303.47
2022-12-04T21:26:31.330Z,102293.84
2022-12-04T21:28:59.454Z,102289.56
2022-12-04T21:31:28.814Z,102280.09
2022-12-04T21:33:56.978Z,102282.81
2022-12-04T21:36:27.159Z,102286.41
2022-12-04T21:38:55.484Z,102290.75
2022-12-04T21:41:41.255Z,102291.94
2022-12-04T21:44:10.711Z,102289.19
2022-12-04T21:46:38.567Z,102287.41
2022-12-04T21:49:06.446Z,102277.16
2022-12-04T21:54:23.522Z,102280.56
2022-12-04T21:56:51.181Z,102280.56
2022-12-04T21:59:18.847Z,102279.94
2022-12-04T22:01:46.623Z,102285.31
2022-12-04T22:04:14.480Z,102280.28
2022-12-04T22:06:43.523Z,102288.19
2022-12-04T22:09:13.264Z,102281.03
2022-12-04T22:11:42.331Z,102285.22
2022-12-04T22:14:10.699Z,102281.97
2022-12-04T22:16:42.864Z,102278.25
2022-12-04T22:19:12.021Z,102276.47
2022-12-04T22:21:39.764Z,102281.59
2022-12-04T22:24:10.433Z,102274.53
2022-12-04T22:26:38.751Z,102279.94
2022-12-04T22:29:27.301Z,102286.78
2022-12-04T22:31:54.441Z,102285.69
2022-12-04T22:34:22.079Z,102283.06
2022-12-04T22:36:50.179Z,102270.69
2022-12-04T22:39:19.102Z,102270.56
2022-12-04T22:41:46.683Z,102280.09
2022-12-04T22:44:14.367Z,102275.50
2022-12-04T22:46:42.137Z,102276.47
2022-12-04T22:49:09.803Z,102280.91
2022-12-04T22:51:37.459Z,102268.53
2022-12-04T22:54:07.911Z,102282.97
2022-12-04T22:56:36.842Z,102267.81
2022-12-04T22:59:04.443Z,102263.00
2022-12-04T23:01:33.839Z,102260.50
2022-12-04T23:04:04.119Z,102275.28
2022-12-04T23:06:33.762Z,102257.50
2022-12-04T23:09:03.559Z,102268.06
2022-12-04T23:11:31.561Z,102264.72
2022-12-04T23:14:02.851Z,102256.53
2022-12-04T23:16:32.639Z,102256.78
2022-12-04T23:19:00.565Z,102251.38
2022-12-04T23:21:29.443Z,102244.28
2022-12-04T23:23:57.882Z,102250.56
2022-12-04T23:26:28.983Z,102260.88
2022-12-04T23:28:57.041Z,102252.97
2022-12-04T23:31:26.503Z,102256.53
2022-12-04T23:33:54.118Z,102244.28
2022-12-04T23:36:22.078Z,102246.81
2022-12-04T23:38:49.777Z,102238.28
2022-12-04T23:41:19.708Z,102245.97
2022-12-04T23:43:49.016Z,102237.91
2022-12-04T23:46:18.885Z,102233.47
2022-12-04T23:48:48.575Z,102218.38
2022-12-04T23:51:19.166Z,102246.81
2022-12-04T23:53:47.417Z,102214.03
2022-12-04T23:56:16.922Z,102235.03
2022-12-04T23:58:46.135Z,102228.94
